sensor_id;sensor_type;location;lat;lon;timestamp;temperature;humidity
12655;DHT22;6392;44.644;11.448;2023-04-25T00:00:01;15.80;99.90
12655;DHT22;6392;44.644;11.448;2023-04-25T00:02:32;15.80;99.90
12655;DHT22;6392;44.644;11.448;2023-04-25T00:05:00;15.80;99.90
12655;DHT22;6392;44.644;11.448;2023-04-25T00:07:27;15.80;99.90
12655;DHT22;6392;44.644;11.448;2023-04-25T00:09:54;15.80;99.90
12655;DHT22;6392;44.644;11.448;2023-04-25T00:12:22;15.80;99.90
12655;DHT22;6392;44.644;11.448;2023-04-25T00:14:49;15.80;99.90
12655;DHT22;6392;44.644;11.448;2023-04-25T00:17:16;15.80;99.90
12655;DHT22;6392;44.644;11.448;2023-04-25T00:19:44;15.70;99.90
12655;DHT22;6392;44.644;11.448;2023-04-25T00:22:11;15.70;99.90
12655;DHT22;6392;44.644;11.448;2023-04-25T00:24:38;15.70;99.90
12655;DHT22;6392;44.644;11.448;2023-04-25T00:27:05;15.70;99.90
12655;DHT22;6392;44.644;11.448;2023-04-25T00:29:33;15.70;99.90
12655;DHT22;6392;44.644;11.448;2023-04-25T00:32:00;15.60;99.90
12655;DHT22;6392;44.644;11.448;2023-04-25T00:34:27;15.60;99.90
12655;DHT22;6392;44.644;11.448;2023-04-25T00:36:54;15.60;99.90
12655;DHT22;6392;44.644;11.448;2023-04-25T00:39:20;15.50;99.90
12655;DHT22;6392;44.644;11.448;2023-04-25T00:41:47;15.50;99.90
12655;DHT22;6392;44.644;11.448;2023-04-25T00:44:18;15.40;99.90
12655;DHT22;6392;44.644;11.448;2023-04-25T00:46:46;15.40;99.90
12655;DHT22;6392;44.644;11.448;2023-04-25T00:49:13;15.40;99.90
12655;DHT22;6392;44.644;11.448;2023-04-25T00:51:42;15.40;99.90
12655;DHT22;6392;44.644;11.448;2023-04-25T00:54:09;15.40;99.90
12655;DHT22;6392;44.644;11.448;2023-04-25T00:56:36;15.40;99.90
12655;DHT22;6392;44.644;11.448;2023-04-25T00:59:03;15.40;99.90
12655;DHT22;6392;44.644;11.448;2023-04-25T01:01:31;15.30;99.90
12655;DHT22;6392;44.644;11.448;2023-04-25T01:03:59;15.30;99.90
12655;DHT22;6392;44.644;11.448;2023-04-25T01:06:27;15.30;99.90
12655;DHT22;6392;44.644;11.448;2023-04-25T01:08:54;15.30;99.90
12655;DHT22;6392;44.644;11.448;2023-04-25T01:11:21;15.30;99.90
12655;DHT22;6392;44.644;11.448;2023-04-25T01:13:47;15.20;99.90
12655;DHT22;6392;44.644;11.448;2023-04-25T01:16:14;15.20;99.90
12655;DHT22;6392;44.644;11.448;2023-04-25T01:18:41;15.10;99.90
12655;DHT22;6392;44.644;11.448;2023-04-25T01:21:10;15.10;99.90
12655;DHT22;6392;44.644;11.448;2023-04-25T01:23:38;15.10;99.90
12655;DHT22;6392;44.644;11.448;2023-04-25T01:26:05;15.00;99.90
12655;DHT22;6392;44.644;11.448;2023-04-25T01:28:32;15.00;99.90
12655;DHT22;6392;44.644;11.448;2023-04-25T01:30:59;15.00;99.90
12655;DHT22;6392;44.644;11.448;2023-04-25T01:33:26;15.00;99.90
12655;DHT22;6392;44.644;11.448;2023-04-25T01:35:53;15.00;99.90
12655;DHT22;6392;44.644;11.448;2023-04-25T01:38:21;15.00;99.90
12655;DHT22;6392;44.644;11.448;2023-04-25T01:40:48;15.00;99.90
12655;DHT22;6392;44.644;11.448;2023-04-25T01:43:16;15.00;99.90
12655;DHT22;6392;44.644;11.448;2023-04-25T01:45:43;15.00;99.90
12655;DHT22;6392;44.644;11.448;2023-04-25T01:48:10;15.00;99.90
12655;DHT22;6392;44.644;11.448;2023-04-25T01:50:37;15.00;99.90
12655;DHT22;6392;44.644;11.448;2023-04-25T01:53:04;14.90;99.90
12655;DHT22;6392;44.644;11.448;2023-04-25T01:55:32;14.90;99.90
12655;DHT22;6392;44.644;11.448;2023-04-25T01:57:59;14.90;99.90
12655;DHT22;6392;44.644;11.448;2023-04-25T02:00:26;14.90;99.90
12655;DHT22;6392;44.644;11.448;2023-04-25T02:02:53;14.80;99.90
12655;DHT22;6392;44.644;11.448;2023-04-25T02:05:20;14.80;99.90
12655;DHT22;6392;44.644;11.448;2023-04-25T02:07:47;14.80;99.90
12655;DHT22;6392;44.644;11.448;2023-04-25T02:10:14;14.70;99.90
12655;DHT22;6392;44.644;11.448;2023-04-25T02:12:42;14.70;99.90
12655;DHT22;6392;44.644;11.448;2023-04-25T02:15:09;14.70;99.90
12655;DHT22;6392;44.644;11.448;2023-04-25T02:17:36;14.60;99.90
12655;DHT22;6392;44.644;11.448;2023-04-25T02:20:03;14.60;99.90
12655;DHT22;6392;44.644;11.448;2023-04-25T02:22:30;14.60;99.90
12655;DHT22;6392;44.644;11.448;2023-04-25T02:24:57;14.60;99.90
12655;DHT22;6392;44.644;11.448;2023-04-25T02:27:24;14.60;99.90
12655;DHT22;6392;44.644;11.448;2023-04-25T02:29:52;14.60;99.90
12655;DHT22;6392;44.644;11.448;2023-04-25T02:32:18;14.50;99.90
12655;DHT22;6392;44.644;11.448;2023-04-25T02:34:45;14.50;99.90
12655;DHT22;6392;44.644;11.448;2023-04-25T02:37:13;14.50;99.90
12655;DHT22;6392;44.644;11.448;2023-04-25T02:39:40;14.50;99.90
12655;DHT22;6392;44.644;11.448;2023-04-25T02:42:07;14.40;99.90
12655;DHT22;6392;44.644;11.448;2023-04-25T02:44:33;14.40;99.90
12655;DHT22;6392;44.644;11.448;2023-04-25T02:47:02;14.40;99.90
12655;DHT22;6392;44.644;11.448;2023-04-25T02:49:28;14.40;99.90
12655;DHT22;6392;44.644;11.448;2023-04-25T02:51:55;14.40;99.90
12655;DHT22;6392;44.644;11.448;2023-04-25T02:54:22;14.30;99.90
12655;DHT22;6392;44.644;11.448;2023-04-25T02:56:49;14.30;99.90
12655;DHT22;6392;44.644;11.448;2023-04-25T02:59:15;14.30;99.90
12655;DHT22;6392;44.644;11.448;2023-04-25T03:01:42;14.30;99.90
12655;DHT22;6392;44.644;11.448;2023-04-25T03:04:11;14.30;99.90
12655;DHT22;6392;44.644;11.448;2023-04-25T03:06:37;14.30;99.90
12655;DHT22;6392;44.644;11.448;2023-04-25T03:09:04;14.20;99.90
12655;DHT22;6392;44.644;11.448;2023-04-25T03:11:31;14.20;99.90
12655;DHT22;6392;44.644;11.448;2023-04-25T03:13:58;14.20;99.90
12655;DHT22;6392;44.644;11.448;2023-04-25T03:16:25;14.20;99.90
12655;DHT22;6392;44.644;11.448;2023-04-25T03:18:52;14.20;99.90
12655;DHT22;6392;44.644;11.448;2023-04-25T03:21:20;14.20;99.90
12655;DHT22;6392;44.644;11.448;2023-04-25T03:23:46;14.20;99.90
12655;DHT22;6392;44.644;11.448;2023-04-25T03:26:13;14.20;99.90
12655;DHT22;6392;44.644;11.448;2023-04-25T03:28:40;14.20;99.90
12655;DHT22;6392;44.644;11.448;2023-04-25T03:31:07;14.20;99.90
12655;DHT22;6392;44.644;11.448;2023-04-25T03:33:34;14.20;99.90
12655;DHT22;6392;44.644;11.448;2023-04-25T03:36:01;14.20;99.90
12655;DHT22;6392;44.644;11.448;2023-04-25T03:38:29;14.20;99.90
12655;DHT22;6392;44.644;11.448;2023-04-25T03:40:56;14.20;99.90
12655;DHT22;6392;44.644;11.448;2023-04-25T03:43:23;14.20;99.90
12655;DHT22;6392;44.644;11.448;2023-04-25T03:45:49;14.20;99.90
12655;DHT22;6392;44.644;11.448;2023-04-25T03:48:16;14.20;99.90
12655;DHT22;6392;44.644;11.448;2023-04-25T03:50:44;14.20;99.90
12655;DHT22;6392;44.644;11.448;2023-04-25T03:53:11;14.20;99.90
12655;DHT22;6392;44.644;11.448;2023-04-25T03:55:39;14.20;99.90
12655;DHT22;6392;44.644;11.448;2023-04-25T03:58:06;14.20;99.90
12655;DHT22;6392;44.644;11.448;2023-04-25T04:00:33;14.20;99.90
12655;DHT22;6392;44.644;11.448;2023-04-25T04:03:00;14.20;99.90
12655;DHT22;6392;44.644;11.448;2023-04-25T04:05:27;14.20;99.90
12655;DHT22;6392;44.644;11.448;2023-04-25T04:07:54;14.10;99.90
12655;DHT22;6392;44.644;11.448;2023-04-25T04:10:21;14.10;99.90
12655;DHT22;6392;44.644;11.448;2023-04-25T04:12:49;14.10;99.90
12655;DHT22;6392;44.644;11.448;2023-04-25T04:15:16;14.10;99.90
12655;DHT22;6392;44.644;11.448;2023-04-25T04:17:42;14.10;99.90
12655;DHT22;6392;44.644;11.448;2023-04-25T04:20:10;14.10;99.90
12655;DHT22;6392;44.644;11.448;2023-04-25T04:22:36;14.10;99.90
12655;DHT22;6392;44.644;11.448;2023-04-25T04:25:03;14.10;99.90
12655;DHT22;6392;44.644;11.448;2023-04-25T04:27:31;14.10;99.90
12655;DHT22;6392;44.644;11.448;2023-04-25T04:29:59;14.10;99.90
12655;DHT22;6392;44.644;11.448;2023-04-25T04:32:27;14.10;99.90
12655;DHT22;6392;44.644;11.448;2023-04-25T04:34:55;14.10;99.90
12655;DHT22;6392;44.644;11.448;2023-04-25T04:37:22;14.10;99.90
12655;DHT22;6392;44.644;11.448;2023-04-25T04:39:49;14.10;99.90
12655;DHT22;6392;44.644;11.448;2023-04-25T04:42:17;14.10;99.90
12655;DHT22;6392;44.644;11.448;2023-04-25T04:44:44;14.10;99.90
12655;DHT22;6392;44.644;11.448;2023-04-25T04:47:12;14.10;99.90
12655;DHT22;6392;44.644;11.448;2023-04-25T04:49:39;14.10;99.90
12655;DHT22;6392;44.644;11.448;2023-04-25T04:52:06;14.10;99.90
12655;DHT22;6392;44.644;11.448;2023-04-25T04:54:33;14.10;99.90
12655;DHT22;6392;44.644;11.448;2023-04-25T04:57:00;14.00;99.90
12655;DHT22;6392;44.644;11.448;2023-04-25T04:59:27;14.00;99.90
12655;DHT22;6392;44.644;11.448;2023-04-25T05:01:54;14.10;99.90
12655;DHT22;6392;44.644;11.448;2023-04-25T05:04:22;14.10;99.90
12655;DHT22;6392;44.644;11.448;2023-04-25T05:06:49;14.10;99.90
12655;DHT22;6392;44.644;11.448;2023-04-25T05:09:15;14.20;99.90
12655;DHT22;6392;44.644;11.448;2023-04-25T05:11:44;14.20;99.90
12655;DHT22;6392;44.644;11.448;2023-04-25T05:14:11;14.20;99.90
12655;DHT22;6392;44.644;11.448;2023-04-25T05:16:37;14.30;99.90
12655;DHT22;6392;44.644;11.448;2023-04-25T05:19:04;14.20;99.90
12655;DHT22;6392;44.644;11.448;2023-04-25T05:21:32;14.30;99.90
12655;DHT22;6392;44.644;11.448;2023-04-25T05:23:59;14.30;99.90
12655;DHT22;6392;44.644;11.448;2023-04-25T05:26:26;14.30;99.90
12655;DHT22;6392;44.644;11.448;2023-04-25T05:28:56;14.40;99.90
12655;DHT22;6392;44.644;11.448;2023-04-25T05:31:23;14.40;99.90
12655;DHT22;6392;44.644;11.448;2023-04-25T05:33:49;14.50;99.90
12655;DHT22;6392;44.644;11.448;2023-04-25T05:36:17;14.50;99.90
12655;DHT22;6392;44.644;11.448;2023-04-25T05:38:46;14.50;99.90
12655;DHT22;6392;44.644;11.448;2023-04-25T05:41:12;14.60;99.90
12655;DHT22;6392;44.644;11.448;2023-04-25T05:43:39;14.60;99.90
12655;DHT22;6392;44.644;11.448;2023-04-25T05:46:10;14.60;99.90
12655;DHT22;6392;44.644;11.448;2023-04-25T05:48:37;14.70;99.90
12655;DHT22;6392;44.644;11.448;2023-04-25T05:51:04;14.70;99.90
12655;DHT22;6392;44.644;11.448;2023-04-25T05:53:30;14.70;99.90
12655;DHT22;6392;44.644;11.448;2023-04-25T05:55:58;14.70;99.90
12655;DHT22;6392;44.644;11.448;2023-04-25T05:58:25;14.70;99.90
12655;DHT22;6392;44.644;11.448;2023-04-25T06:00:52;14.70;99.90
12655;DHT22;6392;44.644;11.448;2023-04-25T06:03:19;14.70;99.90
12655;DHT22;6392;44.644;11.448;2023-04-25T06:05:46;14.70;99.90
12655;DHT22;6392;44.644;11.448;2023-04-25T06:08:13;14.70;99.90
12655;DHT22;6392;44.644;11.448;2023-04-25T06:10:40;14.70;99.90
12655;DHT22;6392;44.644;11.448;2023-04-25T06:13:08;14.60;99.90
12655;DHT22;6392;44.644;11.448;2023-04-25T06:15:34;14.50;99.90
12655;DHT22;6392;44.644;11.448;2023-04-25T06:18:01;14.30;99.90
12655;DHT22;6392;44.644;11.448;2023-04-25T06:20:28;14.30;99.90
12655;DHT22;6392;44.644;11.448;2023-04-25T06:22:55;14.20;99.90
12655;DHT22;6392;44.644;11.448;2023-04-25T06:25:22;14.20;99.90
12655;DHT22;6392;44.644;11.448;2023-04-25T06:27:49;14.20;99.90
12655;DHT22;6392;44.644;11.448;2023-04-25T06:30:17;14.20;99.90
12655;DHT22;6392;44.644;11.448;2023-04-25T06:32:47;14.20;99.90
12655;DHT22;6392;44.644;11.448;2023-04-25T06:35:14;14.20;99.90
12655;DHT22;6392;44.644;11.448;2023-04-25T06:37:41;14.20;99.90
12655;DHT22;6392;44.644;11.448;2023-04-25T06:40:08;14.20;99.90
12655;DHT22;6392;44.644;11.448;2023-04-25T06:42:35;14.20;99.90
12655;DHT22;6392;44.644;11.448;2023-04-25T06:45:02;14.20;99.90
12655;DHT22;6392;44.644;11.448;2023-04-25T06:47:31;14.20;99.90
12655;DHT22;6392;44.644;11.448;2023-04-25T06:49:57;14.30;99.90
12655;DHT22;6392;44.644;11.448;2023-04-25T06:52:24;14.40;99.90
12655;DHT22;6392;44.644;11.448;2023-04-25T06:54:51;14.40;99.90
12655;DHT22;6392;44.644;11.448;2023-04-25T06:57:18;14.40;99.90
12655;DHT22;6392;44.644;11.448;2023-04-25T06:59:44;14.50;99.90
12655;DHT22;6392;44.644;11.448;2023-04-25T07:02:11;14.50;99.90
12655;DHT22;6392;44.644;11.448;2023-04-25T07:04:39;14.60;99.90
12655;DHT22;6392;44.644;11.448;2023-04-25T07:07:06;14.60;99.90
12655;DHT22;6392;44.644;11.448;2023-04-25T07:09:33;14.70;99.90
12655;DHT22;6392;44.644;11.448;2023-04-25T07:12:00;14.80;99.90
12655;DHT22;6392;44.644;11.448;2023-04-25T07:14:27;14.80;99.90
12655;DHT22;6392;44.644;11.448;2023-04-25T07:16:54;14.70;99.90
12655;DHT22;6392;44.644;11.448;2023-04-25T07:19:22;14.70;99.90
12655;DHT22;6392;44.644;11.448;2023-04-25T07:21:53;14.70;99.90
12655;DHT22;6392;44.644;11.448;2023-04-25T07:24:19;14.70;99.90
12655;DHT22;6392;44.644;11.448;2023-04-25T07:26:46;14.80;99.90
12655;DHT22;6392;44.644;11.448;2023-04-25T07:29:13;14.80;99.90
12655;DHT22;6392;44.644;11.448;2023-04-25T07:31:40;14.80;99.90
12655;DHT22;6392;44.644;11.448;2023-04-25T07:34:07;14.80;99.90
12655;DHT22;6392;44.644;11.448;2023-04-25T07:36:34;14.80;99.90
12655;DHT22;6392;44.644;11.448;2023-04-25T07:39:02;14.80;99.90
12655;DHT22;6392;44.644;11.448;2023-04-25T07:41:28;14.80;99.90
12655;DHT22;6392;44.644;11.448;2023-04-25T07:43:55;14.80;99.90
12655;DHT22;6392;44.644;11.448;2023-04-25T07:46:22;14.80;99.90
12655;DHT22;6392;44.644;11.448;2023-04-25T07:48:49;14.80;99.90
12655;DHT22;6392;44.644;11.448;2023-04-25T07:51:16;14.80;99.90
12655;DHT22;6392;44.644;11.448;2023-04-25T07:53:45;14.80;99.90
12655;DHT22;6392;44.644;11.448;2023-04-25T07:56:13;14.70;99.90
12655;DHT22;6392;44.644;11.448;2023-04-25T07:58:40;14.70;99.90
12655;DHT22;6392;44.644;11.448;2023-04-25T08:01:07;14.80;99.90
12655;DHT22;6392;44.644;11.448;2023-04-25T08:03:33;14.90;99.90
12655;DHT22;6392;44.644;11.448;2023-04-25T08:06:00;15.00;99.90
12655;DHT22;6392;44.644;11.448;2023-04-25T08:08:27;15.00;99.90
12655;DHT22;6392;44.644;11.448;2023-04-25T08:10:54;15.10;99.90
12655;DHT22;6392;44.644;11.448;2023-04-25T08:13:22;15.30;99.90
12655;DHT22;6392;44.644;11.448;2023-04-25T08:15:49;15.40;99.90
12655;DHT22;6392;44.644;11.448;2023-04-25T08:18:16;15.50;99.90
12655;DHT22;6392;44.644;11.448;2023-04-25T08:20:42;15.50;99.90
12655;DHT22;6392;44.644;11.448;2023-04-25T08:23:09;15.50;99.90
12655;DHT22;6392;44.644;11.448;2023-04-25T08:25:36;15.40;99.90
12655;DHT22;6392;44.644;11.448;2023-04-25T08:28:03;15.40;99.90
12655;DHT22;6392;44.644;11.448;2023-04-25T08:30:31;15.50;99.90
12655;DHT22;6392;44.644;11.448;2023-04-25T08:32:58;15.50;99.90
12655;DHT22;6392;44.644;11.448;2023-04-25T08:35:25;15.60;99.90
12655;DHT22;6392;44.644;11.448;2023-04-25T08:37:52;15.70;99.90
12655;DHT22;6392;44.644;11.448;2023-04-25T08:40:19;15.70;99.90
12655;DHT22;6392;44.644;11.448;2023-04-25T08:42:51;15.80;99.90
12655;DHT22;6392;44.644;11.448;2023-04-25T08:45:19;15.90;99.90
12655;DHT22;6392;44.644;11.448;2023-04-25T08:47:48;15.90;99.90
12655;DHT22;6392;44.644;11.448;2023-04-25T08:50:18;16.00;99.90
12655;DHT22;6392;44.644;11.448;2023-04-25T08:52:47;16.00;99.90
12655;DHT22;6392;44.644;11.448;2023-04-25T08:55:14;16.10;99.90
12655;DHT22;6392;44.644;11.448;2023-04-25T08:57:42;16.20;99.90
12655;DHT22;6392;44.644;11.448;2023-04-25T09:00:10;16.40;99.90
12655;DHT22;6392;44.644;11.448;2023-04-25T09:02:37;16.60;99.90
12655;DHT22;6392;44.644;11.448;2023-04-25T09:05:06;16.60;99.90
12655;DHT22;6392;44.644;11.448;2023-04-25T09:07:35;16.60;99.90
12655;DHT22;6392;44.644;11.448;2023-04-25T09:10:02;16.60;99.90
12655;DHT22;6392;44.644;11.448;2023-04-25T09:12:29;16.70;99.90
12655;DHT22;6392;44.644;11.448;2023-04-25T09:15:03;16.80;99.90
12655;DHT22;6392;44.644;11.448;2023-04-25T09:17:30;16.90;99.90
12655;DHT22;6392;44.644;11.448;2023-04-25T09:20:05;17.00;99.90
12655;DHT22;6392;44.644;11.448;2023-04-25T09:22:33;17.00;99.90
12655;DHT22;6392;44.644;11.448;2023-04-25T09:25:02;17.00;99.90
12655;DHT22;6392;44.644;11.448;2023-04-25T09:27:29;17.10;99.90
12655;DHT22;6392;44.644;11.448;2023-04-25T09:29:56;17.10;99.90
12655;DHT22;6392;44.644;11.448;2023-04-25T09:32:23;17.10;99.90
12655;DHT22;6392;44.644;11.448;2023-04-25T09:34:51;17.20;99.90
12655;DHT22;6392;44.644;11.448;2023-04-25T09:37:18;17.20;99.90
12655;DHT22;6392;44.644;11.448;2023-04-25T09:39:47;17.20;99.90
12655;DHT22;6392;44.644;11.448;2023-04-25T09:42:14;17.20;99.90
12655;DHT22;6392;44.644;11.448;2023-04-25T09:44:42;17.30;99.90
12655;DHT22;6392;44.644;11.448;2023-04-25T09:47:10;17.30;99.90
12655;DHT22;6392;44.644;11.448;2023-04-25T09:49:39;17.30;99.90
12655;DHT22;6392;44.644;11.448;2023-04-25T09:52:06;17.30;99.90
12655;DHT22;6392;44.644;11.448;2023-04-25T09:54:33;17.30;99.90
12655;DHT22;6392;44.644;11.448;2023-04-25T09:57:01;17.30;99.90
12655;DHT22;6392;44.644;11.448;2023-04-25T09:59:32;17.40;99.90
12655;DHT22;6392;44.644;11.448;2023-04-25T10:02:01;17.40;99.90
12655;DHT22;6392;44.644;11.448;2023-04-25T10:04:28;17.50;99.90
12655;DHT22;6392;44.644;11.448;2023-04-25T10:07:00;17.50;99.90
12655;DHT22;6392;44.644;11.448;2023-04-25T10:09:27;17.50;99.90
12655;DHT22;6392;44.644;11.448;2023-04-25T10:11:57;17.50;99.90
12655;DHT22;6392;44.644;11.448;2023-04-25T10:14:28;17.50;99.90
12655;DHT22;6392;44.644;11.448;2023-04-25T10:16:55;17.50;99.90
12655;DHT22;6392;44.644;11.448;2023-04-25T10:19:23;17.50;99.90
12655;DHT22;6392;44.644;11.448;2023-04-25T10:21:51;17.60;99.90
12655;DHT22;6392;44.644;11.448;2023-04-25T10:24:18;17.80;99.90
12655;DHT22;6392;44.644;11.448;2023-04-25T10:26:45;17.80;99.90
12655;DHT22;6392;44.644;11.448;2023-04-25T10:29:13;17.80;99.90
12655;DHT22;6392;44.644;11.448;2023-04-25T10:31:49;17.80;99.90
12655;DHT22;6392;44.644;11.448;2023-04-25T10:34:16;17.90;99.90
12655;DHT22;6392;44.644;11.448;2023-04-25T10:36:43;17.90;99.90
12655;DHT22;6392;44.644;11.448;2023-04-25T10:39:15;17.90;99.90
12655;DHT22;6392;44.644;11.448;2023-04-25T10:41:48;17.90;99.90
12655;DHT22;6392;44.644;11.448;2023-04-25T10:44:15;18.00;99.90
12655;DHT22;6392;44.644;11.448;2023-04-25T10:46:42;18.00;99.90
12655;DHT22;6392;44.644;11.448;2023-04-25T10:49:27;18.10;99.90
12655;DHT22;6392;44.644;11.448;2023-04-25T10:54:39;18.20;99.90
12655;DHT22;6392;44.644;11.448;2023-04-25T10:57:07;18.30;99.90
12655;DHT22;6392;44.644;11.448;2023-04-25T10:59:33;18.40;99.90
12655;DHT22;6392;44.644;11.448;2023-04-25T11:02:00;18.40;99.90
12655;DHT22;6392;44.644;11.448;2023-04-25T11:04:39;18.50;99.90
12655;DHT22;6392;44.644;11.448;2023-04-25T11:07:09;18.50;99.90
12655;DHT22;6392;44.644;11.448;2023-04-25T11:09:38;18.60;99.90
12655;DHT22;6392;44.644;11.448;2023-04-25T11:12:07;18.60;99.90
12655;DHT22;6392;44.644;11.448;2023-04-25T11:14:34;18.60;99.90
12655;DHT22;6392;44.644;11.448;2023-04-25T11:17:00;18.70;99.90
12655;DHT22;6392;44.644;11.448;2023-04-25T11:19:28;18.70;99.90
12655;DHT22;6392;44.644;11.448;2023-04-25T11:21:56;18.70;99.90
12655;DHT22;6392;44.644;11.448;2023-04-25T11:24:25;18.70;99.90
12655;DHT22;6392;44.644;11.448;2023-04-25T11:26:52;18.70;99.90
12655;DHT22;6392;44.644;11.448;2023-04-25T11:29:21;18.70;99.90
12655;DHT22;6392;44.644;11.448;2023-04-25T11:31:48;18.70;99.90
12655;DHT22;6392;44.644;11.448;2023-04-25T11:34:16;18.70;99.90
12655;DHT22;6392;44.644;11.448;2023-04-25T11:36:44;18.80;99.90
12655;DHT22;6392;44.644;11.448;2023-04-25T11:39:13;18.80;99.90
12655;DHT22;6392;44.644;11.448;2023-04-25T11:41:41;18.90;99.90
12655;DHT22;6392;44.644;11.448;2023-04-25T11:44:08;18.90;99.90
12655;DHT22;6392;44.644;11.448;2023-04-25T11:46:35;18.80;99.90
12655;DHT22;6392;44.644;11.448;2023-04-25T11:49:02;18.80;99.90
12655;DHT22;6392;44.644;11.448;2023-04-25T11:51:29;18.70;99.90
12655;DHT22;6392;44.644;11.448;2023-04-25T11:53:57;18.70;99.90
12655;DHT22;6392;44.644;11.448;2023-04-25T11:56:25;18.70;99.90
12655;DHT22;6392;44.644;11.448;2023-04-25T11:58:55;18.70;99.90
12655;DHT22;6392;44.644;11.448;2023-04-25T12:01:26;18.70;99.90
12655;DHT22;6392;44.644;11.448;2023-04-25T12:03:53;18.70;99.90
12655;DHT22;6392;44.644;11.448;2023-04-25T12:06:20;18.70;99.90
12655;DHT22;6392;44.644;11.448;2023-04-25T12:09:00;18.70;99.90
12655;DHT22;6392;44.644;11.448;2023-04-25T12:11:28;18.70;99.90
12655;DHT22;6392;44.644;11.448;2023-04-25T12:13:56;18.70;99.90
12655;DHT22;6392;44.644;11.448;2023-04-25T12:16:22;18.70;99.90
12655;DHT22;6392;44.644;11.448;2023-04-25T12:18:51;18.70;99.90
12655;DHT22;6392;44.644;11.448;2023-04-25T12:21:20;18.60;99.90
12655;DHT22;6392;44.644;11.448;2023-04-25T12:23:47;18.60;99.90
12655;DHT22;6392;44.644;11.448;2023-04-25T12:26:13;18.60;99.90
12655;DHT22;6392;44.644;11.448;2023-04-25T12:28:44;18.60;99.90
12655;DHT22;6392;44.644;11.448;2023-04-25T12:31:12;18.70;99.90
12655;DHT22;6392;44.644;11.448;2023-04-25T12:33:40;18.70;99.90
12655;DHT22;6392;44.644;11.448;2023-04-25T12:36:09;18.70;99.90
12655;DHT22;6392;44.644;11.448;2023-04-25T12:38:37;18.70;99.90
12655;DHT22;6392;44.644;11.448;2023-04-25T12:41:04;18.80;99.90
12655;DHT22;6392;44.644;11.448;2023-04-25T12:43:31;18.90;99.90
12655;DHT22;6392;44.644;11.448;2023-04-25T12:46:00;19.10;99.90
12655;DHT22;6392;44.644;11.448;2023-04-25T12:48:27;19.30;99.90
12655;DHT22;6392;44.644;11.448;2023-04-25T12:50:54;19.30;99.90
12655;DHT22;6392;44.644;11.448;2023-04-25T12:53:21;19.40;99.90
12655;DHT22;6392;44.644;11.448;2023-04-25T12:55:49;19.50;99.90
12655;DHT22;6392;44.644;11.448;2023-04-25T12:58:17;19.70;99.90
12655;DHT22;6392;44.644;11.448;2023-04-25T13:00:44;19.90;99.90
12655;DHT22;6392;44.644;11.448;2023-04-25T13:03:13;20.10;99.90
12655;DHT22;6392;44.644;11.448;2023-04-25T13:05:39;20.20;99.90
12655;DHT22;6392;44.644;11.448;2023-04-25T13:08:06;20.30;99.90
12655;DHT22;6392;44.644;11.448;2023-04-25T13:10:33;20.50;99.90
12655;DHT22;6392;44.644;11.448;2023-04-25T13:13:01;20.60;99.90
12655;DHT22;6392;44.644;11.448;2023-04-25T13:15:28;20.80;99.90
12655;DHT22;6392;44.644;11.448;2023-04-25T13:17:55;21.00;99.90
12655;DHT22;6392;44.644;11.448;2023-04-25T13:20:23;21.20;99.90
12655;DHT22;6392;44.644;11.448;2023-04-25T13:22:50;21.40;99.90
12655;DHT22;6392;44.644;11.448;2023-04-25T13:25:17;21.50;99.90
12655;DHT22;6392;44.644;11.448;2023-04-25T13:27:44;21.50;99.90
12655;DHT22;6392;44.644;11.448;2023-04-25T13:30:12;21.30;99.90
12655;DHT22;6392;44.644;11.448;2023-04-25T13:32:39;21.20;99.90
12655;DHT22;6392;44.644;11.448;2023-04-25T13:35:08;21.20;99.90
12655;DHT22;6392;44.644;11.448;2023-04-25T13:37:37;21.30;99.90
12655;DHT22;6392;44.644;11.448;2023-04-25T13:40:05;21.50;99.90
12655;DHT22;6392;44.644;11.448;2023-04-25T13:42:34;21.50;99.90
12655;DHT22;6392;44.644;11.448;2023-04-25T13:45:01;21.40;99.90
12655;DHT22;6392;44.644;11.448;2023-04-25T13:47:29;21.10;99.90
12655;DHT22;6392;44.644;11.448;2023-04-25T13:49:56;21.20;99.90
12655;DHT22;6392;44.644;11.448;2023-04-25T13:52:23;21.30;99.90
12655;DHT22;6392;44.644;11.448;2023-04-25T13:54:52;21.30;99.90
12655;DHT22;6392;44.644;11.448;2023-04-25T13:57:19;21.40;99.90
12655;DHT22;6392;44.644;11.448;2023-04-25T13:59:46;21.70;99.90
12655;DHT22;6392;44.644;11.448;2023-04-25T14:02:13;21.90;99.90
12655;DHT22;6392;44.644;11.448;2023-04-25T14:04:40;21.90;99.90
12655;DHT22;6392;44.644;11.448;2023-04-25T14:07:06;21.70;99.90
12655;DHT22;6392;44.644;11.448;2023-04-25T14:09:33;21.60;99.90
12655;DHT22;6392;44.644;11.448;2023-04-25T14:12:02;21.40;99.90
12655;DHT22;6392;44.644;11.448;2023-04-25T14:14:29;21.10;99.90
12655;DHT22;6392;44.644;11.448;2023-04-25T14:16:56;21.00;99.90
12655;DHT22;6392;44.644;11.448;2023-04-25T14:19:22;20.90;99.90
12655;DHT22;6392;44.644;11.448;2023-04-25T14:21:49;20.70;99.90
12655;DHT22;6392;44.644;11.448;2023-04-25T14:24:16;20.70;99.90
12655;DHT22;6392;44.644;11.448;2023-04-25T14:26:43;20.60;99.90
12655;DHT22;6392;44.644;11.448;2023-04-25T14:29:11;20.60;99.90
12655;DHT22;6392;44.644;11.448;2023-04-25T14:31:38;20.50;99.90
12655;DHT22;6392;44.644;11.448;2023-04-25T14:34:06;20.50;99.90
12655;DHT22;6392;44.644;11.448;2023-04-25T14:36:33;20.40;99.90
12655;DHT22;6392;44.644;11.448;2023-04-25T14:39:00;20.40;99.90
12655;DHT22;6392;44.644;11.448;2023-04-25T14:41:26;20.30;99.90
12655;DHT22;6392;44.644;11.448;2023-04-25T14:43:53;20.30;99.90
12655;DHT22;6392;44.644;11.448;2023-04-25T14:46:23;20.30;99.90
12655;DHT22;6392;44.644;11.448;2023-04-25T14:48:50;20.30;99.90
12655;DHT22;6392;44.644;11.448;2023-04-25T14:51:17;20.30;99.90
12655;DHT22;6392;44.644;11.448;2023-04-25T14:53:44;20.20;99.90
12655;DHT22;6392;44.644;11.448;2023-04-25T14:56:11;20.20;99.90
12655;DHT22;6392;44.644;11.448;2023-04-25T14:58:38;20.10;99.90
12655;DHT22;6392;44.644;11.448;2023-04-25T15:01:05;20.10;99.90
12655;DHT22;6392;44.644;11.448;2023-04-25T15:03:34;20.10;99.90
12655;DHT22;6392;44.644;11.448;2023-04-25T15:06:02;20.10;99.90
12655;DHT22;6392;44.644;11.448;2023-04-25T15:08:28;20.20;99.90
12655;DHT22;6392;44.644;11.448;2023-04-25T15:10:55;20.40;99.90
12655;DHT22;6392;44.644;11.448;2023-04-25T15:13:23;20.40;99.90
12655;DHT22;6392;44.644;11.448;2023-04-25T15:15:50;20.50;99.90
12655;DHT22;6392;44.644;11.448;2023-04-25T15:18:20;20.40;99.90
12655;DHT22;6392;44.644;11.448;2023-04-25T15:20:49;20.30;99.90
12655;DHT22;6392;44.644;11.448;2023-04-25T15:23:16;20.30;99.90
12655;DHT22;6392;44.644;11.448;2023-04-25T15:25:43;20.30;99.90
12655;DHT22;6392;44.644;11.448;2023-04-25T15:28:10;20.40;99.90
12655;DHT22;6392;44.644;11.448;2023-04-25T15:30:37;20.40;99.90
12655;DHT22;6392;44.644;11.448;2023-04-25T15:33:04;20.50;99.90